createdAt,value
2022-11-23T00:00:38.045Z,7.70
2022-11-23T00:03:05.657Z,7.73
2022-11-23T00:05:33.597Z,7.72
2022-11-23T00:08:01.228Z,7.76
2022-11-23T00:10:30.120Z,7.70
2022-11-23T00:12:57.530Z,7.68
2022-11-23T00:15:25.208Z,7.64
2022-11-23T00:17:52.804Z,7.67
2022-11-23T00:20:20.761Z,7.68
2022-11-23T00:22:48.391Z,7.77
2022-11-23T00:25:16.313Z,7.75
2022-11-23T00:27:45.299Z,7.90
2022-11-23T00:30:13.850Z,7.88
2022-11-23T00:32:41.462Z,7.86
2022-11-23T00:35:09.938Z,7.81
2022-11-23T00:37:37.535Z,7.82
2022-11-23T00:40:06.100Z,7.79
2022-11-23T00:42:37.818Z,7.77
2022-11-23T00:45:08.242Z,7.79
2022-11-23T00:47:35.819Z,7.78
2022-11-23T00:50:03.595Z,7.82
2022-11-23T00:52:31.149Z,7.77
2022-11-23T00:54:58.645Z,7.89
2022-11-23T00:57:26.352Z,7.87
2022-11-23T00:59:53.962Z,7.76
2022-11-23T01:02:22.851Z,7.75
2022-11-23T01:04:50.350Z,7.80
2022-11-23T01:07:18.011Z,7.92
2022-11-23T01:09:45.596Z,7.85
2022-11-23T01:12:13.160Z,7.74
2022-11-23T01:14:41.032Z,7.78
2022-11-23T01:17:08.698Z,7.80
2022-11-23T01:19:37.586Z,7.48
2022-11-23T01:22:05.026Z,7.68
2022-11-23T01:24:32.757Z,7.74
2022-11-23T01:27:00.372Z,7.70
2022-11-23T01:29:27.990Z,7.75
2022-11-23T01:31:55.544Z,7.70
2022-11-23T01:34:23.170Z,7.79
2022-11-23T01:36:52.160Z,7.76
2022-11-23T01:39:19.740Z,7.68
2022-11-23T01:41:47.382Z,7.73
2022-11-23T01:44:31.873Z,7.77
2022-11-23T01:47:01.045Z,7.78
2022-11-23T01:49:31.509Z,7.68
2022-11-23T01:52:07.734Z,7.75
2022-11-23T01:54:39.715Z,7.69
2022-11-23T01:57:10.597Z,7.79
2022-11-23T01:59:38.107Z,7.70
2022-11-23T02:02:06.305Z,7.71
2022-11-23T02:04:36.233Z,7.72
2022-11-23T02:07:06.705Z,7.76
2022-11-23T02:09:36.152Z,7.76
2022-11-23T02:12:03.939Z,7.79
2022-11-23T02:14:31.487Z,7.76
2022-11-23T02:17:00.381Z,7.75
2022-11-23T02:19:36.989Z,7.67
2022-11-23T02:22:11.897Z,7.74
2022-11-23T02:24:46.863Z,7.69
2022-11-23T02:27:17.441Z,7.66
2022-11-23T02:29:45.575Z,7.64
2022-11-23T02:32:13.166Z,7.60
2022-11-23T02:34:40.721Z,7.69
2022-11-23T02:37:09.918Z,7.63
2022-11-23T02:39:39.355Z,7.65
2022-11-23T02:42:07.627Z,7.59
2022-11-23T02:44:43.417Z,7.60
2022-11-23T02:47:12.341Z,7.61
2022-11-23T02:49:41.881Z,7.58
2022-11-23T02:52:10.421Z,7.61
2022-11-23T02:54:38.235Z,7.56
2022-11-23T02:57:06.495Z,7.55
2022-11-23T02:59:34.437Z,7.53
2022-11-23T03:02:05.659Z,7.52
2022-11-23T03:04:33.203Z,7.53
2022-11-23T03:07:00.851Z,7.53
2022-11-23T03:09:28.463Z,7.50
2022-11-23T03:11:56.450Z,7.46
2022-11-23T03:14:24.239Z,7.51
2022-11-23T03:16:51.850Z,7.47
2022-11-23T03:19:20.802Z,7.50
2022-11-23T03:21:48.365Z,7.55
2022-11-23T03:24:16.245Z,7.55
2022-11-23T03:26:44.039Z,7.51
2022-11-23T03:29:11.610Z,7.50
2022-11-23T03:31:39.199Z,7.51
2022-11-23T03:34:06.761Z,7.52
2022-11-23T03:36:35.732Z,7.49
2022-11-23T03:39:03.394Z,7.51
2022-11-23T03:41:31.025Z,7.51
2022-11-23T03:43:58.592Z,7.51
2022-11-23T03:46:26.166Z,7.53
2022-11-23T03:48:53.843Z,7.50
2022-11-23T03:51:21.542Z,7.45
2022-11-23T03:53:50.721Z,7.52
2022-11-23T03:56:18.303Z,7.47
2022-11-23T03:58:45.893Z,7.46
2022-11-23T04:01:13.598Z,7.52
2022-11-23T04:03:41.236Z,7.45
2022-11-23T04:06:08.892Z,7.53
2022-11-23T04:08:36.527Z,7.43
2022-11-23T04:11:05.501Z,7.46
2022-11-23T04:13:33.046Z,7.46
2022-11-23T04:16:00.652Z,7.50
2022-11-23T04:18:28.328Z,7.47
2022-11-23T04:20:56.014Z,7.50
2022-11-23T04:23:23.641Z,7.49
2022-11-23T04:25:51.464Z,7.47
2022-11-23T04:28:20.456Z,7.54
2022-11-23T04:30:48.105Z,7.54
2022-11-23T04:33:15.719Z,7.55
2022-11-23T04:35:43.375Z,7.52
2022-11-23T04:38:10.991Z,7.54
2022-11-23T04:40:39.082Z,7.55
2022-11-23T04:43:06.746Z,7.51
2022-11-23T04:45:39.167Z,7.53
2022-11-23T04:48:07.355Z,7.58
2022-11-23T04:50:35.575Z,7.58
2022-11-23T04:53:03.188Z,7.55
2022-11-23T04:55:30.774Z,7.64
2022-11-23T04:57:58.342Z,7.59
2022-11-23T05:00:25.980Z,7.59
2022-11-23T05:02:55.038Z,7.63
2022-11-23T05:05:22.619Z,7.59
2022-11-23T05:07:50.326Z,7.50
2022-11-23T05:10:18.019Z,7.55
2022-11-23T05:12:45.569Z,7.58
2022-11-23T05:15:14.347Z,7.54
2022-11-23T05:17:41.758Z,7.58
2022-11-23T05:20:12.577Z,7.50
2022-11-23T05:22:40.256Z,7.40
2022-11-23T05:25:08.606Z,7.49
2022-11-23T05:27:36.532Z,7.42
2022-11-23T05:30:04.995Z,7.36
2022-11-23T05:32:32.579Z,7.41
2022-11-23T05:35:00.232Z,7.40
2022-11-23T05:37:29.210Z,7.39
2022-11-23T05:39:56.820Z,7.41
2022-11-23T05:42:24.408Z,7.42
2022-11-23T05:44:51.962Z,7.43
2022-11-23T05:47:19.552Z,7.45
2022-11-23T05:49:47.146Z,7.45
2022-11-23T05:52:14.765Z,7.47
2022-11-23T05:54:43.790Z,7.49
2022-11-23T05:57:12.024Z,7.42
2022-11-23T05:59:39.725Z,7.40
2022-11-23T06:02:07.485Z,7.39
2022-11-23T06:04:35.053Z,7.43
2022-11-23T06:07:02.683Z,7.45
2022-11-23T06:09:30.980Z,7.43
2022-11-23T06:12:00.149Z,7.45
2022-11-23T06:14:27.742Z,7.42
2022-11-23T06:16:55.381Z,7.32
2022-11-23T06:19:22.951Z,7.34
2022-11-23T06:21:50.795Z,7.33
2022-11-23T06:24:18.449Z,7.29
2022-11-23T06:26:46.087Z,7.29
2022-11-23T06:29:15.658Z,7.36
2022-11-23T06:31:43.302Z,7.39
2022-11-23T06:34:10.928Z,7.36
2022-11-23T06:36:38.664Z,7.38
2022-11-23T06:39:06.420Z,7.40
2022-11-23T06:41:34.037Z,7.40
2022-11-23T06:44:01.786Z,7.39
2022-11-23T06:46:30.681Z,7.34
2022-11-23T06:48:58.087Z,7.32
2022-11-23T06:51:25.888Z,7.35
2022-11-23T06:53:53.551Z,7.27
2022-11-23T06:56:21.129Z,7.28
2022-11-23T06:58:48.786Z,7.27
2022-11-23T07:01:16.547Z,7.21
2022-11-23T07:03:45.579Z,7.17
2022-11-23T07:06:13.214Z,7.14
2022-11-23T07:08:43.406Z,7.18
2022-11-23T07:11:11.819Z,7.19
2022-11-23T07:13:39.650Z,7.20
2022-11-23T07:16:07.839Z,7.16
2022-11-23T07:18:35.816Z,7.17
2022-11-23T07:21:04.739Z,7.16
2022-11-23T07:23:32.173Z,7.10
2022-11-23T07:25:59.802Z,7.10
2022-11-23T07:28:27.314Z,6.97
2022-11-23T07:30:54.932Z,6.91
2022-11-23T07:33:22.533Z,6.92
2022-11-23T07:35:50.228Z,6.89
2022-11-23T07:38:19.199Z,6.89
2022-11-23T07:40:50.573Z,6.94
2022-11-23T07:43:18.211Z,6.94
2022-11-23T07:45:45.815Z,6.94
2022-11-23T07:48:13.459Z,6.95
2022-11-23T07:50:41.170Z,6.96
2022-11-23T07:53:09.105Z,6.95
2022-11-23T07:55:38.065Z,6.97
2022-11-23T07:58:06.459Z,7.01
2022-11-23T08:00:34.074Z,7.06
2022-11-23T08:03:26.524Z,7.05
2022-11-23T08:05:49.389Z,7.11
2022-11-23T08:08:17.129Z,7.09
2022-11-23T08:10:51.389Z,7.12
2022-11-23T08:13:20.447Z,7.12
2022-11-23T08:15:53.862Z,7.09
2022-11-23T08:18:23.261Z,7.02
2022-11-23T08:20:51.137Z,7.09
2022-11-23T08:23:18.972Z,7.14
2022-11-23T08:25:48.347Z,7.11
2022-11-23T08:28:16.022Z,7.23
2022-11-23T08:30:43.867Z,7.20
2022-11-23T08:33:13.225Z,7.26
2022-11-23T08:35:42.552Z,7.35
2022-11-23T08:38:11.066Z,7.46
2022-11-23T08:40:39.057Z,7.35
2022-11-23T08:43:08.273Z,7.44
2022-11-23T08:45:35.866Z,7.50
2022-11-23T08:48:04.550Z,7.47
2022-11-23T08:50:34.361Z,7.46
2022-11-23T08:53:02.051Z,7.52
2022-11-23T08:55:30.502Z,7.44
2022-11-23T08:57:58.925Z,7.58
2022-11-23T09:00:28.797Z,7.45
2022-11-23T09:02:58.228Z,7.44
2022-11-23T09:05:25.894Z,7.47
2022-11-23T09:07:53.573Z,7.52
2022-11-23T09:10:21.190Z,7.66
2022-11-23T09:12:49.276Z,7.71
2022-11-23T09:15:17.417Z,7.72
2022-11-23T09:17:46.455Z,7.78
2022-11-23T09:20:14.143Z,7.81
2022-11-23T09:22:41.811Z,7.86
2022-11-23T09:25:10.830Z,7.81
2022-11-23T09:27:38.410Z,7.86
2022-11-23T09:30:07.099Z,7.79
2022-11-23T09:32:34.758Z,7.87
2022-11-23T09:35:03.806Z,7.96
2022-11-23T09:37:31.492Z,8.04
2022-11-23T09:39:59.136Z,7.97
2022-11-23T09:42:44.664Z,7.90
2022-11-23T09:45:28.298Z,7.90
2022-11-23T09:48:16.153Z,7.96
2022-11-23T09:50:54.364Z,8.01
2022-11-23T09:53:25.938Z,8.07
2022-11-23T09:55:56.890Z,8.16
2022-11-23T09:58:30.781Z,8.11
2022-11-23T10:01:02.131Z,8.09
2022-11-23T10:03:31.740Z,8.18
2022-11-23T10:06:05.656Z,8.13
2022-11-23T10:08:44.217Z,8.14
2022-11-23T10:11:36.115Z,8.15
2022-11-23T10:14:18.150Z,8.18
2022-11-23T10:16:51.840Z,8.16
2022-11-23T10:19:32.425Z,8.06
2022-11-23T10:22:10.251Z,8.18
2022-11-23T10:24:44.073Z,8.18
2022-11-23T10:27:16.593Z,8.24
2022-11-23T10:29:44.885Z,8.31
2022-11-23T10:32:27.351Z,8.66
2022-11-23T10:35:03.445Z,8.88
2022-11-23T10:37:33.205Z,9.05
2022-11-23T10:40:00.839Z,8.80
2022-11-23T10:42:33.286Z,8.76
2022-11-23T10:45:01.921Z,8.59
2022-11-23T10:47:42.640Z,8.40
2022-11-23T10:50:26.013Z,8.52
2022-11-23T10:52:57.128Z,8.61
2022-11-23T10:55:30.418Z,8.61
2022-11-23T10:57:58.673Z,8.58
2022-11-23T11:00:30.860Z,8.70
2022-11-23T11:03:00.322Z,8.72
2022-11-23T11:06:08.088Z,8.65
2022-11-23T11:08:22.666Z,8.76
2022-11-23T11:10:57.884Z,8.69
2022-11-23T11:13:28.511Z,8.58
2022-11-23T11:15:57.782Z,8.58
2022-11-23T11:18:31.288Z,8.50
2022-11-23T11:21:02.110Z,8.53
2022-11-23T11:23:32.520Z,8.45
2022-11-23T11:26:06.493Z,8.46
2022-11-23T11:28:38.073Z,8.38
2022-11-23T11:31:22.176Z,8.34
2022-11-23T11:33:57.100Z,8.35
2022-11-23T11:36:28.827Z,8.37
2022-11-23T11:39:18.733Z,8.31
2022-11-23T11:41:50.246Z,8.37
2022-11-23T11:44:22.598Z,8.35
2022-11-23T11:46:57.666Z,8.32
2022-11-23T11:49:30.958Z,8.42
2022-11-23T11:52:04.863Z,8.45
2022-11-23T11:54:40.270Z,8.49
2022-11-23T11:57:17.965Z,8.43
2022-11-23T11:59:48.373Z,8.44
2022-11-23T12:02:21.848Z,8.45
2022-11-23T12:04:58.592Z,8.38
2022-11-23T12:07:31.021Z,8.41
2022-11-23T12:10:06.549Z,8.44
2022-11-23T12:12:37.032Z,8.46
2022-11-23T12:15:26.375Z,8.46
2022-11-23T12:18:14.516Z,8.48
2022-11-23T12:20:52.004Z,8.53
2022-11-23T12:23:28.802Z,8.65
2022-11-23T12:26:12.993Z,8.68
2022-11-23T12:28:55.037Z,8.66
2022-11-23T12:31:39.236Z,8.75
2022-11-23T12:34:18.272Z,8.76
2022-11-23T12:37:01.003Z,8.78
2022-11-23T12:39:54.326Z,8.78
2022-11-23T12:42:32.372Z,8.85
2022-11-23T12:45:19.125Z,8.84
2022-11-23T12:47:57.393Z,8.87
2022-11-23T12:50:31.738Z,8.88
2022-11-23T12:53:08.833Z,8.90
2022-11-23T12:55:48.685Z,8.97
2022-11-23T12:58:24.803Z,8.89
2022-11-23T13:00:57.078Z,8.91
2022-11-23T13:04:16.133Z,8.86
2022-11-23T13:07:43.322Z,8.86
2022-11-23T13:10:28.754Z,8.83
2022-11-23T13:13:15.623Z,8.87
2022-11-23T13:16:01.135Z,8.90
2022-11-23T13:18:44.453Z,8.88
2022-11-23T13:21:31.175Z,8.90
2022-11-23T13:23:58.847Z,8.94
2022-11-23T13:26:28.174Z,8.94
2022-11-23T13:28:58.526Z,8.93
2022-11-23T13:31:31.000Z,8.94
2022-11-23T13:34:01.367Z,8.82
2022-11-23T13:40:05.651Z,8.79
2022-11-23T13:42:35.963Z,8.70
2022-11-23T13:45:25.489Z,8.63
2022-11-23T13:48:48.770Z,8.49
2022-11-23T13:51:07.399Z,8.34
2022-11-23T13:53:37.658Z,8.21
2022-11-23T13:56:30.885Z,8.10
2022-11-23T13:59:00.148Z,8.05
2022-11-23T14:01:59.383Z,7.97
2022-11-23T14:04:29.119Z,7.94
2022-11-23T14:07:01.392Z,7.96
2022-11-23T14:09:36.072Z,7.86
2022-11-23T14:12:09.182Z,7.83
2022-11-23T14:14:50.663Z,7.86
2022-11-23T14:17:59.913Z,7.73
2022-11-23T14:20:41.995Z,7.68
2022-11-23T14:23:29.019Z,7.54
2022-11-23T14:26:14.242Z,7.57
2022-11-23T14:28:53.596Z,7.54
2022-11-23T14:31:33.584Z,7.51
2022-11-23T14:34:11.762Z,7.49
2022-11-23T14:36:50.411Z,7.53
2022-11-23T14:39:55.336Z,7.56
2022-11-23T14:42:26.722Z,7.70
2022-11-23T14:44:55.115Z,7.68
2022-11-23T14:47:27.728Z,7.51
2022-11-23T14:49:55.788Z,7.57
2022-11-23T14:52:27.369Z,7.38
2022-11-23T14:54:57.435Z,7.62
2022-11-23T14:57:28.944Z,7.58
2022-11-23T14:59:59.728Z,7.52
2022-11-23T15:02:35.022Z,7.50
2022-11-23T15:05:08.514Z,7.49
2022-11-23T15:07:46.483Z,7.46
2022-11-23T15:10:27.566Z,7.55
2022-11-23T15:12:55.164Z,7.52
2022-11-23T15:15:24.656Z,7.49
2022-11-23T15:17:53.628Z,7.48
2022-11-23T15:20:22.179Z,7.51
2022-11-23T15:22:51.425Z,7.50
2022-11-23T15:25:20.193Z,7.53
2022-11-23T15:27:49.567Z,7.53
2022-11-23T15:30:22.433Z,7.48
2022-11-23T15:32:57.853Z,7.54
2022-11-23T15:35:30.906Z,7.46
2022-11-23T15:38:00.670Z,7.45
2022-11-23T15:40:32.020Z,7.46
2022-11-23T15:42:59.871Z,7.47
2022-11-23T15:45:38.703Z,7.45
2022-11-23T15:48:11.402Z,7.51
2022-11-23T15:50:47.384Z,7.51
2022-11-23T15:53:16.570Z,7.47
2022-11-23T15:55:44.628Z,7.49
2022-11-23T15:58:18.303Z,7.47
2022-11-23T16:00:51.459Z,7.47
2022-11-23T16:03:31.673Z,7.47
2022-11-23T16:06:20.706Z,7.49
2022-11-23T16:08:49.679Z,7.53
2022-11-23T16:11:32.172Z,7.49
2022-11-23T16:14:17.772Z,7.44
2022-11-23T16:16:47.532Z,7.46
2022-11-23T16:19:34.967Z,7.45
2022-11-23T16:22:05.754Z,7.47
2022-11-23T16:24:37.234Z,7.50
2022-11-23T16:27:13.746Z,7.52
2022-11-23T16:29:42.043Z,7.51
2022-11-23T16:32:23.493Z,7.52
2022-11-23T16:34:51.337Z,7.53
2022-11-23T16:37:19.223Z,7.54
2022-11-23T16:39:48.322Z,7.53
2022-11-23T16:42:16.741Z,7.57
2022-11-23T16:44:45.302Z,7.58
2022-11-23T16:47:25.024Z,7.48
2022-11-23T16:49:53.947Z,7.62
2022-11-23T16:52:22.748Z,7.65
2022-11-23T16:54:52.505Z,7.63
2022-11-23T16:57:28.679Z,7.58
2022-11-23T16:59:56.572Z,7.60
2022-11-23T17:02:24.408Z,7.65
2022-11-23T17:04:52.169Z,7.72
2022-11-23T17:07:19.891Z,7.69
2022-11-23T17:09:47.551Z,7.71
2022-11-23T17:12:19.724Z,7.74
2022-11-23T17:14:49.584Z,7.69
2022-11-23T17:17:20.497Z,7.76
2022-11-23T17:19:49.623Z,7.79
2022-11-23T17:22:18.585Z,7.81
2022-11-23T17:24:47.203Z,7.78
2022-11-23T17:27:18.019Z,7.80
2022-11-23T17:29:46.408Z,7.78
2022-11-23T17:32:15.309Z,7.80
2022-11-23T17:34:42.777Z,7.79
2022-11-23T17:37:16.268Z,7.74
2022-11-23T17:39:43.839Z,7.76
2022-11-23T17:42:12.446Z,7.76
2022-11-23T17:44:41.436Z,7.75
2022-11-23T17:47:25.068Z,7.75
2022-11-23T17:49:53.093Z,7.68
2022-11-23T17:52:20.823Z,7.70
2022-11-23T17:54:48.692Z,7.69
2022-11-23T17:57:18.259Z,7.65
2022-11-23T17:59:47.223Z,7.65
2022-11-23T18:02:14.853Z,7.68
2022-11-23T18:04:42.473Z,7.67
2022-11-23T18:07:13.880Z,7.70
2022-11-23T18:09:41.696Z,7.64
2022-11-23T18:12:10.074Z,7.69
2022-11-23T18:14:37.785Z,7.66
2022-11-23T18:17:06.816Z,7.64
2022-11-23T18:19:34.811Z,7.65
2022-11-23T18:22:02.642Z,7.65
2022-11-23T18:24:30.268Z,7.64
2022-11-23T18:26:57.811Z,7.61
2022-11-23T18:29:25.413Z,7.50
2022-11-23T18:31:53.156Z,7.48
2022-11-23T18:34:22.109Z,7.44
2022-11-23T18:36:49.694Z,7.47
2022-11-23T18:39:17.360Z,7.41
2022-11-23T18:41:45.044Z,7.40
2022-11-23T18:44:12.683Z,7.40
2022-11-23T18:46:41.159Z,7.38
2022-11-23T18:49:09.157Z,7.34
2022-11-23T18:51:38.214Z,7.33
2022-11-23T18:54:06.216Z,7.32
2022-11-23T18:56:33.809Z,7.28
2022-11-23T18:59:02.708Z,7.18
2022-11-23T19:01:30.534Z,7.25
2022-11-23T19:03:58.292Z,7.25
2022-11-23T19:06:25.958Z,7.24
2022-11-23T19:08:57.337Z,7.16
2022-11-23T19:11:27.324Z,7.23
2022-11-23T19:13:56.491Z,7.09
2022-11-23T19:16:26.180Z,7.13
2022-11-23T19:18:57.905Z,7.20
2022-11-23T19:21:28.949Z,7.14
2022-11-23T19:23:59.288Z,7.10
2022-11-23T19:26:28.468Z,7.11
2022-11-23T19:28:56.958Z,7.06
2022-11-23T19:31:26.610Z,6.98
2022-11-23T19:33:56.666Z,7.06
2022-11-23T19:36:25.664Z,7.04
2022-11-23T19:38:54.553Z,7.05
2022-11-23T19:41:29.604Z,7.07
2022-11-23T19:43:59.574Z,7.08
2022-11-23T19:46:28.123Z,7.14
2022-11-23T19:48:57.192Z,7.11
2022-11-23T19:51:26.137Z,7.10
2022-11-23T19:53:54.751Z,7.08
2022-11-23T19:56:25.767Z,7.05
2022-11-23T19:58:54.652Z,7.02
2022-11-23T20:01:23.092Z,6.82
2022-11-23T20:03:53.383Z,7.06
2022-11-23T20:06:24.069Z,7.10
2022-11-23T20:08:54.995Z,7.10
2022-11-23T20:11:24.663Z,7.13
2022-11-23T20:13:52.954Z,7.01
2022-11-23T20:16:22.060Z,7.04
2022-11-23T20:18:54.890Z,7.06
2022-11-23T20:21:22.588Z,7.07
2022-11-23T20:23:57.613Z,7.06
2022-11-23T20:26:29.502Z,6.99
2022-11-23T20:28:59.100Z,6.97
2022-11-23T20:31:28.924Z,7.01
2022-11-23T20:33:57.877Z,6.95
2022-11-23T20:36:26.552Z,6.97
2022-11-23T20:38:54.200Z,6.93
2022-11-23T20:41:24.431Z,6.89
2022-11-23T20:43:55.154Z,7.00
2022-11-23T20:46:45.687Z,7.03
2022-11-23T20:49:10.849Z,7.04
2022-11-23T20:51:38.462Z,7.06
2022-11-23T20:54:06.223Z,7.06
2022-11-23T20:56:33.884Z,7.05
2022-11-23T20:59:04.615Z,7.03
2022-11-23T21:01:32.623Z,7.06
2022-11-23T21:04:00.847Z,7.04
2022-11-23T21:06:30.121Z,6.98
2022-11-23T21:09:00.008Z,6.98
2022-11-23T21:11:46.744Z,6.94
2022-11-23T21:14:18.608Z,6.92
2022-11-23T21:16:52.791Z,6.88
2022-11-23T21:19:21.954Z,6.88
2022-11-23T21:21:49.900Z,6.87
2022-11-23T21:24:17.726Z,6.85
2022-11-23T21:26:45.419Z,6.83
2022-11-23T21:29:13.136Z,6.84
2022-11-23T21:31:44.982Z,6.88
2022-11-23T21:34:18.474Z,6.86
2022-11-23T21:36:46.267Z,6.87
2022-11-23T21:39:14.683Z,6.87
2022-11-23T21:41:42.726Z,6.86
2022-11-23T21:44:11.517Z,6.87
2022-11-23T21:46:39.770Z,6.89
2022-11-23T21:49:09.623Z,6.89
2022-11-23T21:51:38.396Z,6.91
2022-11-23T21:54:07.193Z,6.94
2022-11-23T21:56:34.611Z,6.95
2022-11-23T21:59:02.312Z,6.92
2022-11-23T22:01:31.422Z,6.99
2022-11-23T22:04:02.019Z,7.01
2022-11-23T22:06:31.575Z,7.04
2022-11-23T22:09:00.696Z,7.04
2022-11-23T22:11:30.320Z,7.05
2022-11-23T22:13:59.561Z,7.01
2022-11-23T22:16:29.003Z,7.03
2022-11-23T22:18:57.471Z,7.02
2022-11-23T22:21:27.127Z,7.02
2022-11-23T22:23:56.380Z,6.78
2022-11-23T22:26:24.506Z,7.03
2022-11-23T22:28:52.677Z,7.06
2022-11-23T22:31:22.932Z,7.06
2022-11-23T22:33:51.406Z,6.94
2022-11-23T22:36:20.846Z,7.05
2022-11-23T22:38:48.896Z,7.03
2022-11-23T22:41:18.370Z,6.99
2022-11-23T22:43:46.079Z,7.03
2022-11-23T22:46:16.083Z,6.96
2022-11-23T22:48:45.426Z,7.02
2022-11-23T22:51:14.423Z,7.11
2022-11-23T22:53:44.526Z,7.07
2022-11-23T22:56:14.557Z,7.08
2022-11-23T22:58:44.414Z,7.18
2022-11-23T23:01:14.663Z,7.21
2022-11-23T23:03:43.449Z,7.16
2022-11-23T23:06:15.416Z,7.25
2022-11-23T23:08:43.147Z,7.24
2022-11-23T23:11:11.303Z,7.19
2022-11-23T23:13:39.100Z,7.27
2022-11-23T23:16:11.955Z,7.34
2022-11-23T23:18:40.035Z,7.38
2022-11-23T23:21:10.861Z,7.34
2022-11-23T23:23:39.198Z,7.36
2022-11-23T23:26:07.408Z,7.42
2022-11-23T23:28:35.464Z,7.51
2022-11-23T23:31:04.239Z,7.52
2022-11-23T23:33:33.736Z,7.53
2022-11-23T23:36:05.015Z,7.55
2022-11-23T23:38:33.453Z,7.44
2022-11-23T23:41:01.329Z,7.52
2022-11-23T23:43:29.256Z,7.47
2022-11-23T23:45:58.910Z,7.54
2022-11-23T23:48:29.096Z,7.55
2022-11-23T23:50:58.223Z,7.56
2022-11-23T23:53:25.922Z,7.53
2022-11-23T23:55:58.363Z,7.51
2022-11-23T23:58:26.445Z,7.63
